Terminal Aerodrome Forecast
Issued by NWS

Home | Current Version | Previous Version | Graphics & Text | Print | Product List | Glossary On
Versions: 1 2 3 4 5 6 7 8 9 10 11 12
000
FTUS43 KGRB 241700
TAFCWA
TAF
KCWA 241721Z 2418/2518 12008KT P6SM BKN090
     FM242100 11008KT P6SM VCSH SCT035 OVC060
      TEMPO 2421/2502 -SHRA
     FM250700 09007G13KT P6SM SCT040 OVC070
     FM251500 08013G21KT P6SM BKN080=

USA.gov is the U.S. government's official web portal to all federal, state and local government web resources and services.